Terminal Aerodrome Forecast
Issued by NWS Shreveport, LA

Home | Current Version | Previous Version | Text Only | Print | Product List | Glossary On
Versions: 1 2 3 4 5 6 7 8 9 10 11 12 13 14 15 16 17 18 19 20
228
FTUS44 KSHV 221139
TAFMLU
TAF
KMLU 221139Z 2212/2312 06004KT P6SM FEW018
      TEMPO 2212/2214 5SM BR BKN020
     FM221400 06006KT P6SM SCT025 SCT250
     FM221800 06006KT P6SM SCT040 SCT250
     FM230000 04004KT P6SM SCT040
      TEMPO 2310/2312 BKN015=

USA.gov is the U.S. government's official web portal to all federal, state and local government web resources and services.